Time;durP1;ratioP1;P1;durP2;ratioP2;P2;SDS_P1;SDS_P2;PMS_P1;PMS_P2;Temp;Humidity;BMP_temperature;BMP_pressure;BME280_temperature;BME280_humidity;BME280_pressure;Samples;Min_cycle;Max_cycle;Signal;HPM_P1;HPM_P2
2022/01/11 00:01:32;;;;;;;13.37;10.00;;;5.10;99.90;;;;;;5076936;28;20399;-81
2022/01/11 00:04:18;;;;;;;14.47;9.87;;;5.10;99.90;;;;;;5076339;28;20400;-81
2022/01/11 00:07:05;;;;;;;12.17;9.93;;;5.10;99.90;;;;;;5076442;28;20376;-80
2022/01/11 00:09:52;;;;;;;16.50;10.80;;;5.10;99.90;;;;;;5076072;28;20352;-80
2022/01/11 00:12:37;;;;;;;10.77;8.37;;;5.00;99.90;;;;;;5077158;28;20409;-80
2022/01/11 00:15:22;;;;;;;15.00;9.50;;;4.90;99.90;;;;;;5077265;28;20435;-81
2022/01/11 00:18:07;;;;;;;13.77;9.87;;;4.80;99.90;;;;;;5077398;28;20432;-81
2022/01/11 00:20:52;;;;;;;14.03;9.97;;;4.90;99.90;;;;;;5077346;28;20455;-80
2022/01/11 00:26:36;;;;;;;15.10;8.80;;;4.90;99.90;;;;;;5075683;28;20379;-80
2022/01/11 00:29:20;;;;;;;11.60;10.33;;;5.00;99.90;;;;;;5076090;28;20360;-81
2022/01/11 00:32:10;;;;;;;11.43;9.27;;;4.90;99.90;;;;;;5076552;28;20791;-80
2022/01/11 00:34:56;;;;;;;12.50;9.00;;;4.90;99.90;;;;;;5075810;28;20382;-80
2022/01/11 00:37:40;;;;;;;15.80;8.93;;;4.90;99.90;;;;;;5076050;28;20413;-80
2022/01/11 00:40:24;;;;;;;18.57;9.97;;;4.90;99.90;;;;;;5076448;28;20443;-80
2022/01/11 00:43:09;;;;;;;12.07;8.77;;;4.90;99.90;;;;;;5076408;28;20451;-80
2022/01/11 00:45:55;;;;;;;13.40;9.50;;;4.90;99.90;;;;;;5076736;28;20407;-81
2022/01/11 00:48:40;;;;;;;9.17;7.87;;;4.90;99.90;;;;;;5076108;28;20456;-80
2022/01/11 00:51:24;;;;;;;19.63;9.50;;;4.90;99.90;;;;;;5075940;28;20364;-80
2022/01/11 00:54:08;;;;;;;19.27;8.90;;;4.90;99.90;;;;;;5076601;28;20864;-81
2022/01/11 00:56:53;;;;;;;9.50;7.93;;;4.90;99.90;;;;;;5076134;28;20418;-80
2022/01/11 00:59:38;;;;;;;17.43;9.00;;;4.90;99.90;;;;;;5076240;28;20843;-80
2022/01/11 01:02:23;;;;;;;14.43;8.87;;;4.90;99.90;;;;;;5079841;28;20363;-80
2022/01/11 01:05:08;;;;;;;13.23;8.00;;;4.90;99.90;;;;;;5064589;28;20367;-80
2022/01/11 01:07:53;;;;;;;16.90;8.67;;;4.90;99.90;;;;;;5082407;28;20359;-80
2022/01/11 01:10:40;;;;;;;12.87;8.67;;;4.90;99.90;;;;;;5078394;28;20462;-79
2022/01/11 01:13:27;;;;;;;13.53;8.67;;;4.90;99.90;;;;;;5078578;28;20401;-80
2022/01/11 01:16:11;;;;;;;15.93;9.10;;;4.80;99.90;;;;;;5076176;28;20450;-80
2022/01/11 01:18:55;;;;;;;17.30;10.30;;;4.70;99.90;;;;;;5076111;28;20447;-80
2022/01/11 01:21:40;;;;;;;21.67;10.20;;;4.70;99.90;;;;;;5077064;28;20522;-80
2022/01/11 01:24:25;;;;;;;15.63;8.87;;;4.70;99.90;;;;;;5077015;28;20396;-80
2022/01/11 01:27:09;;;;;;;14.50;11.50;;;4.80;99.90;;;;;;5076125;28;20738;-80
2022/01/11 01:29:54;;;;;;;12.00;10.07;;;4.80;99.90;;;;;;5061453;28;20477;-80
2022/01/11 01:32:39;;;;;;;12.60;8.53;;;4.80;99.90;;;;;;5077872;28;20364;-79
2022/01/11 01:35:28;;;;;;;12.63;8.67;;;4.90;99.90;;;;;;5079945;28;20394;-80
2022/01/11 01:38:12;;;;;;;17.67;9.50;;;4.90;99.90;;;;;;5064889;28;20360;-78
2022/01/11 01:41:03;;;;;;;12.80;9.37;;;4.90;99.90;;;;;;5064064;28;20598;-79
2022/01/11 01:43:53;;;;;;;21.03;11.20;;;4.90;99.90;;;;;;5079614;28;20371;-80
2022/01/11 01:46:39;;;;;;;17.60;9.97;;;4.90;99.90;;;;;;5079714;28;20385;-80
2022/01/11 01:49:23;;;;;;;11.63;9.50;;;4.90;99.90;;;;;;5080095;28;20934;-80
2022/01/11 01:52:08;;;;;;;12.43;9.47;;;4.90;99.90;;;;;;5079339;28;20459;-80
2022/01/11 01:54:53;;;;;;;15.50;7.33;;;4.90;99.90;;;;;;5079008;28;20367;-80
2022/01/11 01:57:37;;;;;;;12.70;8.87;;;4.90;99.90;;;;;;5064212;28;20459;-80
2022/01/11 02:00:23;;;;;;;12.10;9.40;;;4.80;99.90;;;;;;5079405;28;20418;-80
2022/01/11 02:03:12;;;;;;;10.53;7.60;;;4.80;99.90;;;;;;5079424;28;20360;-81
2022/01/11 02:05:57;;;;;;;14.33;9.93;;;4.70;99.90;;;;;;5079767;28;20545;-80
2022/01/11 02:08:44;;;;;;;11.63;8.57;;;4.80;99.90;;;;;;5092384;28;20375;-79
2022/01/11 02:11:31;;;;;;;13.13;8.40;;;4.80;99.90;;;;;;5094291;28;20455;-81
2022/01/11 02:14:16;;;;;;;16.90;8.77;;;4.90;99.90;;;;;;5079820;28;20847;-81
2022/01/11 02:17:01;;;;;;;14.80;9.40;;;4.80;99.90;;;;;;5078853;28;20387;-81
2022/01/11 02:19:45;;;;;;;13.13;8.80;;;4.80;99.90;;;;;;5079432;28;20493;-81
2022/01/11 02:22:30;;;;;;;14.17;7.40;;;4.80;99.90;;;;;;5063913;28;20491;-81
2022/01/11 02:25:15;;;;;;;18.67;9.77;;;4.80;99.90;;;;;;5079002;28;20844;-81
2022/01/11 02:27:59;;;;;;;11.20;8.40;;;4.80;99.90;;;;;;5079103;28;20460;-81
2022/01/11 02:30:45;;;;;;;12.97;9.73;;;4.80;99.90;;;;;;5078595;28;20443;-80
2022/01/11 02:33:33;;;;;;;10.77;7.93;;;4.80;99.90;;;;;;5079420;28;20399;-80
2022/01/11 02:36:22;;;;;;;17.67;8.07;;;4.80;99.90;;;;;;5063060;28;20401;-81
2022/01/11 02:39:07;;;;;;;16.10;9.40;;;4.90;99.90;;;;;;5078874;28;20405;-81
2022/01/11 02:41:54;;;;;;;15.23;9.13;;;4.80;99.90;;;;;;5063683;28;20873;-80
2022/01/11 02:44:39;;;;;;;16.13;9.13;;;4.80;99.90;;;;;;5077273;28;20355;-81
2022/01/11 02:47:23;;;;;;;8.83;6.93;;;4.70;99.90;;;;;;5078521;28;20476;-80
2022/01/11 02:50:09;;;;;;;23.20;9.87;;;4.70;99.90;;;;;;5063271;28;20405;-80
2022/01/11 02:52:53;;;;;;;8.70;7.03;;;4.70;99.90;;;;;;5077693;28;20400;-81
2022/01/11 02:55:40;;;;;;;14.67;8.70;;;4.70;99.90;;;;;;5078024;28;20359;-80
2022/01/11 02:58:24;;;;;;;19.47;9.13;;;4.80;99.90;;;;;;5078537;28;20368;-80
2022/01/11 03:01:10;;;;;;;12.33;9.07;;;4.80;99.90;;;;;;5077826;28;20438;-81
2022/01/11 03:03:55;;;;;;;11.80;7.67;;;4.80;99.90;;;;;;5078416;28;20363;-80
2022/01/11 03:06:39;;;;;;;21.40;6.97;;;4.80;99.90;;;;;;5077449;28;20825;-79
2022/01/11 03:09:24;;;;;;;16.07;8.40;;;4.80;99.90;;;;;;5077545;28;20476;-81
2022/01/11 03:12:09;;;;;;;9.90;6.67;;;4.80;99.90;;;;;;5077321;28;20355;-80
2022/01/11 03:14:53;;;;;;;12.67;8.30;;;4.80;99.90;;;;;;5078312;28;20368;-80
2022/01/11 03:17:39;;;;;;;11.20;8.23;;;4.80;99.90;;;;;;5077913;28;20389;-80
2022/01/11 03:20:23;;;;;;;20.13;8.03;;;4.80;99.90;;;;;;5078695;28;20423;-81
2022/01/11 03:23:09;;;;;;;9.07;8.03;;;4.80;99.90;;;;;;5079199;28;20421;-79
2022/01/11 03:25:54;;;;;;;11.33;7.00;;;4.80;99.90;;;;;;5077991;28;20452;-81
2022/01/11 03:28:39;;;;;;;13.43;9.87;;;4.80;99.90;;;;;;5077335;28;20360;-81
2022/01/11 03:31:24;;;;;;;15.40;8.33;;;4.80;99.90;;;;;;5062127;28;20400;-80
2022/01/11 03:34:08;;;;;;;15.80;8.80;;;4.80;99.90;;;;;;5077382;28;20765;-80
2022/01/11 03:36:53;;;;;;;17.13;7.60;;;4.80;99.90;;;;;;5062659;28;20876;-80
2022/01/11 03:39:38;;;;;;;8.93;6.73;;;4.70;99.90;;;;;;5077434;28;20461;-80
2022/01/11 03:42:22;;;;;;;15.00;9.70;;;4.80;99.90;;;;;;5077057;28;20376;-80
2022/01/11 03:45:09;;;;;;;15.17;9.10;;;4.70;99.90;;;;;;5077059;28;20440;-80
2022/01/11 03:47:58;;;;;;;8.80;7.80;;;4.80;99.90;;;;;;5076704;28;20862;-80
2022/01/11 03:50:48;;;;;;;8.30;6.37;;;4.70;99.90;;;;;;5077393;28;20439;-80
2022/01/11 03:53:44;;;;;;;18.50;8.73;;;4.70;99.90;;;;;;5077377;28;20401;-81
2022/01/11 03:56:28;;;;;;;12.80;9.40;;;4.70;99.90;;;;;;5083080;28;20359;-81
2022/01/11 03:59:13;;;;;;;14.83;8.17;;;4.80;99.90;;;;;;5085654;28;20462;-81
2022/01/11 04:01:57;;;;;;;13.17;9.10;;;4.70;99.90;;;;;;5086935;28;20414;-81
2022/01/11 04:04:42;;;;;;;11.93;8.40;;;4.70;99.90;;;;;;5086335;28;20426;-81
2022/01/11 04:07:27;;;;;;;17.00;8.60;;;4.80;99.90;;;;;;5076471;28;20418;-81
2022/01/11 04:10:12;;;;;;;16.40;9.57;;;4.70;99.90;;;;;;5061345;28;20499;-81
2022/01/11 04:12:57;;;;;;;14.50;7.67;;;4.80;99.90;;;;;;5076452;28;20416;-81
2022/01/11 04:15:41;;;;;;;15.27;10.93;;;4.70;99.90;;;;;;5077555;28;20393;-81
2022/01/11 04:18:26;;;;;;;9.80;7.40;;;4.80;99.90;;;;;;5095822;28;20379;-81
2022/01/11 04:21:11;;;;;;;7.97;6.40;;;4.70;99.90;;;;;;5097451;28;20438;-79
2022/01/11 04:23:56;;;;;;;10.80;8.73;;;4.60;99.90;;;;;;5097409;28;20356;-79
2022/01/11 04:26:41;;;;;;;16.10;8.30;;;4.60;99.90;;;;;;5083569;28;20848;-81
2022/01/11 04:29:26;;;;;;;10.23;7.20;;;4.70;99.90;;;;;;5078370;28;20408;-78
2022/01/11 04:32:11;;;;;;;18.40;7.33;;;4.70;99.90;;;;;;5060915;28;20435;-80
2022/01/11 04:34:55;;;;;;;18.57;10.27;;;4.70;99.90;;;;;;5060849;28;20397;-81
2022/01/11 04:37:40;;;;;;;15.23;7.90;;;4.70;99.90;;;;;;5076404;28;20951;-81
2022/01/11 04:40:25;;;;;;;11.93;8.43;;;4.70;99.90;;;;;;5075847;28;20444;-80
2022/01/11 04:43:09;;;;;;;13.70;8.83;;;4.70;99.90;;;;;;5076463;28;20722;-80
2022/01/11 04:45:54;;;;;;;13.10;8.70;;;4.70;99.90;;;;;;5068882;28;20388;-80
2022/01/11 04:48:38;;;;;;;11.40;7.90;;;4.70;99.90;;;;;;5057225;28;20783;-80
2022/01/11 04:51:24;;;;;;;17.67;8.17;;;4.70;99.90;;;;;;5055605;28;20357;-80
2022/01/11 04:54:09;;;;;;;16.90;8.93;;;4.70;99.90;;;;;;5055544;28;20908;-80
2022/01/11 04:56:54;;;;;;;11.07;7.30;;;4.70;99.90;;;;;;5040641;28;20356;-80
2022/01/11 04:59:38;;;;;;;8.90;8.00;;;4.70;99.90;;;;;;5055555;28;20448;-81
2022/01/11 05:02:25;;;;;;;10.63;7.37;;;4.70;99.90;;;;;;5043929;28;20468;-80
2022/01/11 05:05:10;;;;;;;11.73;8.53;;;4.60;99.90;;;;;;5063123;28;20836;-81
2022/01/11 05:07:55;;;;;;;12.60;9.63;;;4.60;99.90;;;;;;5081909;28;20360;-81
2022/01/11 05:10:42;;;;;;;8.03;7.23;;;4.70;99.90;;;;;;5063926;28;20368;-81
2022/01/11 05:13:27;;;;;;;10.17;8.03;;;4.70;99.90;;;;;;5062589;28;20385;-81
2022/01/11 05:16:11;;;;;;;16.50;8.77;;;4.70;99.90;;;;;;5063547;28;20734;-81
2022/01/11 05:18:56;;;;;;;12.13;7.40;;;4.60;99.90;;;;;;5062476;28;20409;-80
2022/01/11 05:21:41;;;;;;;9.93;7.33;;;4.60;99.90;;;;;;5063141;28;20442;-80
2022/01/11 05:24:26;;;;;;;14.30;7.43;;;4.60;99.90;;;;;;5063128;28;20360;-81
2022/01/11 05:27:11;;;;;;;13.90;7.80;;;4.60;99.90;;;;;;5062457;28;20752;-81
2022/01/11 05:29:56;;;;;;;13.70;7.97;;;4.70;99.90;;;;;;5063169;28;20783;-81
2022/01/11 05:32:42;;;;;;;12.07;9.17;;;4.70;99.90;;;;;;5062892;28;20417;-80
2022/01/11 05:35:27;;;;;;;11.20;7.93;;;4.70;99.90;;;;;;5062125;28;20861;-81
2022/01/11 05:38:12;;;;;;;12.37;8.20;;;4.80;99.90;;;;;;5062012;28;20405;-81
2022/01/11 05:40:56;;;;;;;13.70;8.50;;;4.70;99.90;;;;;;5063701;28;20424;-80
2022/01/11 05:43:41;;;;;;;14.10;7.40;;;4.70;99.90;;;;;;5063999;28;20419;-80
2022/01/11 05:46:26;;;;;;;8.97;7.40;;;4.70;99.90;;;;;;5063891;28;20399;-80
2022/01/11 05:49:11;;;;;;;10.47;7.13;;;4.70;99.90;;;;;;5042273;28;20401;-79
2022/01/11 05:51:56;;;;;;;16.90;7.77;;;4.70;99.90;;;;;;5063703;28;20353;-80
2022/01/11 05:54:40;;;;;;;12.40;8.17;;;4.70;99.90;;;;;;5063918;28;20780;-80
2022/01/11 05:57:26;;;;;;;13.33;8.23;;;4.70;99.90;;;;;;5063157;28;20411;-80
2022/01/11 06:00:15;;;;;;;10.33;7.37;;;4.70;99.90;;;;;;5062181;28;20919;-80
2022/01/11 06:03:00;;;;;;;16.10;8.80;;;4.60;99.90;;;;;;5063047;28;20364;-80
2022/01/11 06:05:44;;;;;;;12.77;7.70;;;4.70;99.90;;;;;;5062410;28;20465;-80
2022/01/11 06:08:29;;;;;;;12.90;8.10;;;4.60;99.90;;;;;;5062585;28;20361;-80
2022/01/11 06:11:13;;;;;;;8.90;7.90;;;4.60;99.90;;;;;;5048392;28;20368;-81
2022/01/11 06:13:57;;;;;;;17.30;9.80;;;4.60;99.90;;;;;;5063416;28;20404;-80
2022/01/11 06:16:42;;;;;;;13.20;7.90;;;4.60;99.90;;;;;;5059773;28;20412;-81
2022/01/11 06:19:27;;;;;;;11.20;8.20;;;4.60;99.90;;;;;;5038836;28;20420;-81
2022/01/11 06:22:11;;;;;;;8.43;7.40;;;4.60;99.90;;;;;;4999147;28;20986;-80
2022/01/11 06:24:56;;;;;;;25.87;12.47;;;4.50;99.90;;;;;;5000538;28;20877;-80
2022/01/11 06:27:42;;;;;;;20.30;10.23;;;4.50;99.90;;;;;;5001432;28;20391;-80
2022/01/11 06:30:26;;;;;;;12.93;7.73;;;4.50;99.90;;;;;;5001968;28;20379;-80
2022/01/11 06:33:11;;;;;;;11.83;7.77;;;4.50;99.90;;;;;;5017296;28;20461;-80
2022/01/11 06:35:55;;;;;;;12.20;8.50;;;4.40;99.90;;;;;;5031877;28;20474;-80
2022/01/11 06:38:41;;;;;;;18.70;7.03;;;4.40;99.90;;;;;;5024442;28;20432;-79
2022/01/11 06:41:25;;;;;;;11.50;8.13;;;4.50;99.90;;;;;;5028039;28;20472;-78
2022/01/11 06:44:10;;;;;;;8.40;7.20;;;4.50;99.90;;;;;;5037082;28;20523;-80
2022/01/11 06:46:55;;;;;;;9.30;7.57;;;4.50;99.90;;;;;;5007666;28;20509;-80
2022/01/11 06:49:40;;;;;;;13.67;8.30;;;4.50;99.90;;;;;;5035834;28;20411;-80
2022/01/11 06:52:24;;;;;;;12.50;8.20;;;4.50;99.90;;;;;;5050667;28;20429;-80
2022/01/11 06:55:10;;;;;;;9.77;7.17;;;4.50;99.90;;;;;;5056886;28;20385;-79
2022/01/11 06:57:54;;;;;;;10.23;7.67;;;4.40;99.90;;;;;;5055598;28;20435;-80
2022/01/11 07:00:39;;;;;;;12.73;8.10;;;4.50;99.90;;;;;;5051455;28;20506;-79
2022/01/11 07:03:24;;;;;;;8.70;7.40;;;4.50;99.90;;;;;;5047697;28;20420;-80
2022/01/11 07:06:08;;;;;;;13.63;10.20;;;4.50;99.90;;;;;;5057528;28;20390;-79
2022/01/11 07:08:53;;;;;;;17.60;9.23;;;4.50;99.90;;;;;;5094900;28;20897;-80
2022/01/11 07:11:37;;;;;;;13.80;8.67;;;4.50;99.90;;;;;;5078883;28;20409;-80
2022/01/11 07:14:22;;;;;;;13.00;10.10;;;4.50;99.90;;;;;;5047398;28;20476;-80
2022/01/11 07:17:07;;;;;;;13.20;7.93;;;4.50;99.90;;;;;;5055997;28;20380;-80
2022/01/11 07:19:51;;;;;;;14.27;8.67;;;4.60;99.90;;;;;;5051499;28;20458;-80
2022/01/11 07:22:37;;;;;;;12.97;8.67;;;4.60;99.90;;;;;;5058685;28;20407;-80
2022/01/11 07:25:22;;;;;;;15.83;9.93;;;4.50;99.90;;;;;;5060228;28;20393;-80
2022/01/11 07:28:07;;;;;;;13.37;8.20;;;4.50;99.90;;;;;;5065427;28;20918;-80
2022/01/11 07:30:55;;;;;;;13.17;7.03;;;4.50;99.90;;;;;;5046700;28;20872;-80
2022/01/11 07:33:39;;;;;;;17.63;8.13;;;4.60;99.90;;;;;;5034868;28;20426;-80
2022/01/11 07:36:23;;;;;;;15.17;7.70;;;4.50;99.90;;;;;;5063533;28;20442;-81
2022/01/11 07:39:10;;;;;;;12.83;9.13;;;4.60;99.90;;;;;;5057449;28;20408;-81
2022/01/11 07:41:54;;;;;;;16.40;10.93;;;4.60;99.90;;;;;;5052231;28;20438;-80
2022/01/11 07:44:39;;;;;;;20.73;10.93;;;4.60;99.90;;;;;;5051272;28;20393;-80
2022/01/11 07:47:23;;;;;;;8.00;7.20;;;4.60;99.90;;;;;;5058803;28;20418;-80
2022/01/11 07:50:09;;;;;;;10.33;7.37;;;4.60;99.90;;;;;;5076848;28;20495;-81
2022/01/11 07:52:53;;;;;;;11.40;9.10;;;4.60;99.90;;;;;;5079786;28;20442;-81
2022/01/11 07:55:38;;;;;;;14.30;8.30;;;4.60;99.90;;;;;;5075885;28;20186;-81
2022/01/11 07:58:24;;;;;;;10.00;7.17;;;4.60;99.90;;;;;;5074313;28;20391;-80
2022/01/11 08:01:09;;;;;;;13.97;9.53;;;4.60;99.90;;;;;;5059914;28;20418;-80
2022/01/11 08:03:53;;;;;;;13.10;8.40;;;4.60;99.90;;;;;;5080419;28;20368;-80
2022/01/11 08:06:38;;;;;;;10.07;7.30;;;4.70;99.90;;;;;;5066476;28;20370;-80
2022/01/11 08:09:22;;;;;;;11.23;8.17;;;4.70;99.90;;;;;;5072359;28;20443;-80
2022/01/11 08:12:08;;;;;;;20.90;8.53;;;4.70;99.90;;;;;;5055599;28;20494;-79
2022/01/11 08:14:52;;;;;;;17.07;10.80;;;4.70;99.90;;;;;;5058798;28;20408;-81
2022/01/11 08:17:37;;;;;;;13.77;7.77;;;4.70;99.90;;;;;;5076543;28;20900;-81
2022/01/11 08:20:22;;;;;;;10.83;7.53;;;4.80;99.90;;;;;;5079642;28;20453;-81
2022/01/11 08:23:06;;;;;;;10.97;7.50;;;4.80;99.90;;;;;;5061732;28;20406;-79
2022/01/11 08:25:51;;;;;;;8.70;7.27;;;4.80;99.90;;;;;;5074103;28;20444;-80
2022/01/11 08:28:35;;;;;;;9.17;7.00;;;4.80;99.90;;;;;;5079460;28;20383;-81
2022/01/11 08:31:20;;;;;;;8.83;7.70;;;4.80;99.90;;;;;;5080278;28;20470;-80
2022/01/11 08:34:11;;;;;;;11.20;8.10;;;4.90;99.90;;;;;;5069915;28;20387;-80
2022/01/11 08:36:56;;;;;;;16.20;8.70;;;4.80;99.90;;;;;;5065555;28;20936;-78
2022/01/11 08:39:42;;;;;;;10.70;7.63;;;4.80;99.90;;;;;;5062638;28;20474;-81
2022/01/11 08:42:29;;;;;;;10.80;7.77;;;4.80;99.90;;;;;;5090530;28;20448;-80
2022/01/11 08:45:13;;;;;;;8.50;7.63;;;4.80;99.90;;;;;;5076587;28;20863;-80
2022/01/11 08:47:59;;;;;;;17.23;8.50;;;4.90;99.90;;;;;;5065677;28;20443;-79
2022/01/11 08:50:43;;;;;;;10.13;7.17;;;4.90;99.90;;;;;;5086108;28;20395;-80
2022/01/11 08:53:28;;;;;;;18.07;9.53;;;4.80;99.90;;;;;;5075924;28;20415;-81
2022/01/11 08:56:17;;;;;;;22.40;8.20;;;4.90;99.90;;;;;;5073738;28;20956;-81
2022/01/11 08:59:01;;;;;;;11.77;7.80;;;4.80;99.90;;;;;;5044947;28;20422;-80
2022/01/11 09:01:46;;;;;;;18.63;7.93;;;4.80;99.90;;;;;;5077293;28;20419;-81
2022/01/11 09:04:30;;;;;;;13.43;7.80;;;4.80;99.90;;;;;;5073349;28;20410;-80
2022/01/11 09:07:15;;;;;;;16.10;11.20;;;4.80;99.90;;;;;;5073226;28;20532;-80
2022/01/11 09:09:59;;;;;;;12.23;7.30;;;4.90;99.90;;;;;;5059458;28;20449;-79
2022/01/11 09:12:45;;;;;;;11.37;8.60;;;4.90;99.90;;;;;;5074655;28;20407;-80
2022/01/11 09:15:30;;;;;;;10.17;7.47;;;4.90;99.90;;;;;;5040574;28;20951;-81
2022/01/11 09:18:15;;;;;;;13.37;9.10;;;4.90;99.90;;;;;;5069785;28;20419;-80
2022/01/11 09:21:03;;;;;;;18.07;11.43;;;4.90;99.90;;;;;;5073761;28;20458;-80
2022/01/11 09:23:48;;;;;;;14.67;9.47;;;4.90;99.90;;;;;;5072396;28;20498;-79
2022/01/11 09:26:32;;;;;;;13.33;7.73;;;5.00;99.90;;;;;;5079903;28;20475;-80
2022/01/11 09:29:19;;;;;;;13.27;10.37;;;5.00;99.90;;;;;;5073545;28;20388;-80
2022/01/11 09:32:05;;;;;;;10.53;7.90;;;5.00;99.90;;;;;;5069898;28;20515;-81
2022/01/11 09:34:49;;;;;;;9.87;7.97;;;4.60;99.90;;;;;;5068780;28;20934;-80
2022/01/11 09:37:34;;;;;;;9.00;7.53;;;4.60;99.90;;;;;;5083904;28;20420;-81
2022/01/11 09:40:19;;;;;;;15.27;9.33;;;4.80;99.90;;;;;;5067779;28;20492;-79
2022/01/11 09:43:03;;;;;;;15.80;10.67;;;5.00;99.90;;;;;;5070404;28;20507;-80
2022/01/11 09:45:49;;;;;;;13.97;9.17;;;5.10;99.90;;;;;;5073464;28;20768;-81
2022/01/11 09:48:35;;;;;;;13.17;9.60;;;5.20;99.90;;;;;;5061455;28;20470;-80
2022/01/11 09:51:19;;;;;;;11.53;7.47;;;5.20;99.90;;;;;;5072762;28;20407;-80
2022/01/11 09:54:05;;;;;;;13.60;9.50;;;5.30;99.90;;;;;;5050955;28;20446;-80
2022/01/11 09:56:50;;;;;;;10.57;8.70;;;5.40;99.90;;;;;;5073964;28;20676;-81
2022/01/11 09:59:34;;;;;;;10.60;8.63;;;5.40;99.90;;;;;;5073926;28;20440;-80
2022/01/11 10:02:19;;;;;;;11.03;8.97;;;5.40;99.90;;;;;;5059003;28;20437;-81
2022/01/11 10:05:07;;;;;;;11.60;7.50;;;5.40;99.90;;;;;;5073321;28;20410;-80
2022/01/11 10:07:52;;;;;;;12.80;8.40;;;5.40;99.90;;;;;;5082220;28;20432;-80
2022/01/11 10:10:45;;;;;;;10.97;9.83;;;5.50;99.90;;;;;;5078775;28;20418;-81
2022/01/11 10:13:39;;;;;;;8.67;7.20;;;5.50;99.90;;;;;;5060154;28;20383;-79
2022/01/11 10:16:26;;;;;;;13.50;8.60;;;5.50;99.90;;;;;;5072857;28;20384;-80
2022/01/11 10:19:26;;;;;;;14.50;7.57;;;5.60;99.90;;;;;;5074170;28;20394;-80
2022/01/11 10:22:15;;;;;;;8.30;6.20;;;5.60;99.90;;;;;;5066022;28;20501;-80
2022/01/11 10:25:03;;;;;;;11.20;9.03;;;5.70;99.90;;;;;;5075625;28;20388;-80
2022/01/11 10:27:59;;;;;;;10.73;6.97;;;5.70;99.90;;;;;;5057388;28;20403;-79
2022/01/11 10:30:43;;;;;;;8.40;6.13;;;5.80;99.90;;;;;;5075471;28;20367;-81
2022/01/11 10:33:28;;;;;;;13.50;7.77;;;5.70;99.90;;;;;;5066395;28;20887;-80
2022/01/11 10:36:13;;;;;;;10.03;7.70;;;5.40;99.90;;;;;;5077908;28;20496;-80
2022/01/11 10:39:28;;;;;;;14.23;7.83;;;5.50;99.90;;;;;;5081324;28;20436;-80
2022/01/11 10:42:26;;;;;;;11.47;7.67;;;5.60;99.90;;;;;;5075780;28;20456;-80
2022/01/11 10:45:16;;;;;;;10.00;7.30;;;5.70;99.90;;;;;;5073179;28;20765;-81
2022/01/11 10:48:05;;;;;;;15.95;10.15;;;5.40;99.90;;;;;;5078454;28;20408;-79
2022/01/11 10:50:53;;;;;;;9.93;7.87;;;5.60;99.90;;;;;;5074437;28;20171;-80
2022/01/11 10:53:38;;;;;;;10.00;7.93;;;5.80;99.90;;;;;;5053704;28;20407;-80
2022/01/11 10:56:38;;;;;;;14.40;10.20;;;6.00;99.90;;;;;;5079317;28;20426;-80
2022/01/11 10:59:23;;;;;;;16.40;8.00;;;6.00;99.90;;;;;;5040861;28;20449;-80
2022/01/11 11:02:13;;;;;;;11.40;7.07;;;6.10;99.90;;;;;;5010872;28;20536;-80
2022/01/11 11:04:58;;;;;;;14.67;5.80;;;6.10;99.90;;;;;;5021862;28;20394;-79
2022/01/11 11:07:44;;;;;;;15.17;8.37;;;6.10;99.90;;;;;;5033123;28;20393;-79
2022/01/11 11:10:36;;;;;;;8.87;7.90;;;6.10;99.90;;;;;;5034667;28;20394;-80
2022/01/11 11:13:33;;;;;;;11.20;7.77;;;6.10;99.90;;;;;;5033645;28;20416;-81
2022/01/11 11:16:21;;;;;;;9.13;5.90;;;6.20;99.90;;;;;;5019294;28;20466;-81
2022/01/11 11:19:05;;;;;;;10.77;6.30;;;6.20;99.90;;;;;;5033896;28;20500;-79
2022/01/11 11:21:52;;;;;;;12.37;6.70;;;6.20;99.90;;;;;;5019978;28;20458;-80
2022/01/11 11:24:36;;;;;;;10.83;7.30;;;6.20;99.90;;;;;;5029972;28;20439;-80
2022/01/11 11:27:23;;;;;;;7.50;6.80;;;6.20;99.90;;;;;;5038342;28;20400;-80
2022/01/11 11:30:08;;;;;;;11.77;7.23;;;6.10;99.90;;;;;;5061904;28;20482;-79
2022/01/11 11:32:53;;;;;;;10.00;8.17;;;6.10;99.90;;;;;;5047858;28;20415;-79
2022/01/11 11:35:38;;;;;;;13.73;9.98;;;6.10;99.90;;;;;;5075194;28;20437;-79
2022/01/11 11:38:29;;;;;;;9.57;6.60;;;6.10;99.90;;;;;;5079140;28;20198;-79
2022/01/11 11:41:15;;;;;;;16.17;9.20;;;6.10;99.90;;;;;;5060285;28;20441;-79
2022/01/11 11:44:16;;;;;;;7.37;6.20;;;6.10;99.90;;;;;;5067573;28;20395;-80
2022/01/11 11:47:05;;;;;;;10.30;6.60;;;6.20;99.90;;;;;;5042537;28;20648;-79
2022/01/11 11:49:54;;;;;;;8.67;6.63;;;6.20;99.90;;;;;;5057837;28;20425;-79
2022/01/11 11:52:44;;;;;;;10.80;7.20;;;6.20;99.90;;;;;;5054574;28;20467;-79
2022/01/11 11:55:31;;;;;;;11.93;6.73;;;6.20;99.90;;;;;;5032198;28;20961;-79
2022/01/11 11:58:21;;;;;;;9.70;5.97;;;6.20;99.90;;;;;;5043648;28;20425;-79
2022/01/11 12:01:05;;;;;;;9.50;6.77;;;6.20;99.90;;;;;;5029361;28;20541;-82
2022/01/11 12:03:50;;;;;;;9.03;6.60;;;6.10;99.90;;;;;;5046428;28;20414;-81
2022/01/11 12:06:34;;;;;;;9.47;6.07;;;6.10;99.90;;;;;;5048381;28;20429;-82
2022/01/11 12:09:21;;;;;;;8.07;6.23;;;6.10;99.90;;;;;;5045414;28;20897;-82
2022/01/11 12:12:08;;;;;;;7.10;5.77;;;6.10;99.90;;;;;;5059012;28;20422;-81
2022/01/11 12:14:52;;;;;;;10.20;6.63;;;6.00;99.90;;;;;;5048857;28;20825;-81
2022/01/11 12:17:37;;;;;;;8.67;6.90;;;5.90;99.90;;;;;;5053939;28;20428;-79
2022/01/11 12:20:40;;;;;;;5.90;4.47;;;5.80;99.90;;;;;;4984361;28;20442;-79
2022/01/11 12:23:55;;;;;;;5.37;4.07;;;5.90;99.90;;;;;;5015536;28;20422;-79
2022/01/11 12:26:41;;;;;;;7.37;5.60;;;5.90;99.90;;;;;;4990726;28;20383;-80
2022/01/11 12:29:27;;;;;;;9.27;6.00;;;5.90;99.90;;;;;;4994839;28;20447;-80
2022/01/11 12:32:13;;;;;;;7.63;4.73;;;5.90;99.90;;;;;;4983517;28;20488;-79
2022/01/11 12:35:24;;;;;;;6.80;6.10;;;5.90;99.90;;;;;;5009320;28;21027;-79
2022/01/11 12:38:09;;;;;;;7.97;6.33;;;5.90;99.90;;;;;;5002828;28;20563;-79
2022/01/11 12:40:54;;;;;;;6.53;5.40;;;5.90;99.90;;;;;;5011187;28;20434;-80
2022/01/11 12:43:49;;;;;;;5.97;5.03;;;5.80;99.90;;;;;;5007733;28;20433;-79
2022/01/11 12:46:50;;;;;;;9.43;7.68;;;5.70;99.90;;;;;;5011028;28;20409;-80
2022/01/11 12:49:41;;;;;;;11.57;7.00;;;5.70;99.90;;;;;;4969080;29;20513;-79
2022/01/11 12:52:26;;;;;;;7.90;6.10;;;5.70;99.90;;;;;;4973109;28;20757;-78
2022/01/11 12:55:13;;;;;;;8.03;6.17;;;5.80;99.90;;;;;;4966688;28;20385;-76
2022/01/11 12:58:02;;;;;;;7.20;6.50;;;5.70;99.90;;;;;;4980580;28;20422;-80
2022/01/11 13:00:46;;;;;;;9.17;6.63;;;5.80;99.90;;;;;;4976029;28;20491;-80
2022/01/11 13:03:31;;;;;;;9.17;6.23;;;5.90;99.90;;;;;;4980523;28;20411;-81
2022/01/11 13:06:16;;;;;;;10.63;7.10;;;5.80;99.90;;;;;;4974516;28;20434;-81
2022/01/11 13:09:05;;;;;;;9.83;6.03;;;5.80;99.90;;;;;;5001618;28;20455;-80
2022/01/11 13:11:54;;;;;;;7.40;6.17;;;5.90;99.90;;;;;;4995211;28;20566;-81
2022/01/11 13:14:41;;;;;;;10.63;8.70;;;5.80;99.90;;;;;;5009747;28;20438;-82
2022/01/11 13:17:25;;;;;;;6.90;6.20;;;5.80;99.90;;;;;;5010864;28;20251;-81
2022/01/11 13:20:10;;;;;;;7.77;6.13;;;5.90;99.90;;;;;;5018728;28;20458;-80
2022/01/11 13:26:02;;;;;;;7.77;5.47;;;5.70;99.90;;;;;;5038176;28;20418;-79
2022/01/11 13:28:56;;;;;;;7.80;6.37;;;5.80;99.90;;;;;;5054868;28;20406;-79
2022/01/11 13:31:40;;;;;;;6.50;5.23;;;5.90;99.90;;;;;;5006074;28;20820;-78
2022/01/11 13:34:25;;;;;;;9.63;5.40;;;5.90;99.90;;;;;;5052927;28;20421;-79
2022/01/11 13:37:09;;;;;;;11.53;5.13;;;5.90;99.90;;;;;;5024743;28;20770;-81
2022/01/11 13:39:55;;;;;;;6.67;5.10;;;5.90;99.90;;;;;;5045927;28;20440;-81
2022/01/11 13:42:40;;;;;;;7.23;4.80;;;5.80;99.90;;;;;;5049674;28;20421;-82
2022/01/11 13:45:36;;;;;;;5.77;5.20;;;5.90;99.90;;;;;;5061276;28;20392;-81
2022/01/11 13:48:21;;;;;;;4.90;4.50;;;5.90;99.90;;;;;;5063594;28;20467;-81
2022/01/11 13:51:05;;;;;;;4.10;3.40;;;6.00;99.90;;;;;;5054531;28;20399;-80
2022/01/11 13:53:58;;;;;;;3.93;3.37;;;5.40;99.90;;;;;;5061728;28;20384;-81
2022/01/11 13:56:44;;;;;;;2.97;2.70;;;5.20;99.90;;;;;;5063718;28;20920;-81
2022/01/11 13:59:29;;;;;;;6.00;4.37;;;5.30;99.90;;;;;;5076378;28;20450;-81
2022/01/11 14:02:18;;;;;;;6.33;5.60;;;5.30;99.90;;;;;;5069997;28;20413;-81
2022/01/11 14:05:07;;;;;;;7.60;5.67;;;5.30;99.90;;;;;;5059769;28;20405;-81
2022/01/11 14:07:55;;;;;;;6.03;5.10;;;5.50;99.90;;;;;;5064019;28;20383;-80
2022/01/11 14:10:52;;;;;;;3.70;3.37;;;5.60;99.90;;;;;;5059752;28;20408;-81
2022/01/11 14:13:36;;;;;;;3.90;2.90;;;5.50;99.90;;;;;;5035913;28;20911;-82
2022/01/11 14:16:22;;;;;;;4.80;3.07;;;5.10;99.90;;;;;;5040233;28;20438;-81
2022/01/11 14:19:10;;;;;;;5.37;3.57;;;5.10;99.90;;;;;;5061571;28;20947;-81
2022/01/11 14:21:59;;;;;;;14.27;3.40;;;5.10;99.90;;;;;;5076093;28;20445;-80
2022/01/11 14:24:56;;;;;;;6.37;2.57;;;5.10;99.90;;;;;;4979003;28;20403;-79
2022/01/11 14:27:40;;;;;;;3.00;2.80;;;4.90;99.90;;;;;;4983168;28;20423;-79
2022/01/11 14:30:44;;;;;;;3.77;2.80;;;4.90;99.90;;;;;;4969995;28;20413;-78
2022/01/11 14:33:35;;;;;;;2.63;2.43;;;4.80;99.90;;;;;;4962604;29;20429;-79